sensor_id;sensor_type;location;lat;lon;timestamp;P1;durP1;ratioP1;P2;durP2;ratioP2
67237;SDS011;54149;52.708;6.178;2023-12-28T00:00:32;13.20;;;7.20;;
67237;SDS011;54149;52.708;6.178;2023-12-28T00:02:58;10.38;;;6.05;;
67237;SDS011;54149;52.708;6.178;2023-12-28T00:05:24;15.48;;;7.20;;
67237;SDS011;54149;52.708;6.178;2023-12-28T00:07:51;13.15;;;7.53;;
67237;SDS011;54149;52.708;6.178;2023-12-28T00:10:23;11.10;;;6.07;;
67237;SDS011;54149;52.708;6.178;2023-12-28T00:12:49;15.23;;;6.88;;
67237;SDS011;54149;52.708;6.178;2023-12-28T00:15:15;17.02;;;7.40;;
67237;SDS011;54149;52.708;6.178;2023-12-28T00:17:42;19.20;;;7.82;;
67237;SDS011;54149;52.708;6.178;2023-12-28T00:20:08;19.10;;;7.50;;
67237;SDS011;54149;52.708;6.178;2023-12-28T00:22:34;15.35;;;7.57;;
67237;SDS011;54149;52.708;6.178;2023-12-28T00:25:02;19.08;;;7.28;;
67237;SDS011;54149;52.708;6.178;2023-12-28T00:27:28;19.92;;;7.40;;
67237;SDS011;54149;52.708;6.178;2023-12-28T00:29:55;14.93;;;7.05;;
67237;SDS011;54149;52.708;6.178;2023-12-28T00:32:21;18.67;;;7.85;;
67237;SDS011;54149;52.708;6.178;2023-12-28T00:34:47;16.27;;;7.15;;
67237;SDS011;54149;52.708;6.178;2023-12-28T00:37:13;14.50;;;6.97;;
67237;SDS011;54149;52.708;6.178;2023-12-28T00:39:39;17.58;;;7.45;;
67237;SDS011;54149;52.708;6.178;2023-12-28T00:42:06;18.23;;;6.97;;
67237;SDS011;54149;52.708;6.178;2023-12-28T00:44:32;18.38;;;7.40;;
67237;SDS011;54149;52.708;6.178;2023-12-28T00:46:58;18.83;;;7.65;;
67237;SDS011;54149;52.708;6.178;2023-12-28T00:49:24;22.60;;;7.57;;
67237;SDS011;54149;52.708;6.178;2023-12-28T00:51:50;13.05;;;6.78;;
67237;SDS011;54149;52.708;6.178;2023-12-28T00:54:16;15.45;;;7.05;;
67237;SDS011;54149;52.708;6.178;2023-12-28T00:56:42;20.48;;;7.53;;
67237;SDS011;54149;52.708;6.178;2023-12-28T00:59:08;20.00;;;7.10;;
67237;SDS011;54149;52.708;6.178;2023-12-28T01:01:34;21.73;;;8.07;;
67237;SDS011;54149;52.708;6.178;2023-12-28T01:04:00;15.00;;;7.72;;
67237;SDS011;54149;52.708;6.178;2023-12-28T01:06:27;23.75;;;8.68;;
67237;SDS011;54149;52.708;6.178;2023-12-28T01:08:57;17.45;;;7.47;;
67237;SDS011;54149;52.708;6.178;2023-12-28T01:11:23;16.58;;;7.50;;
67237;SDS011;54149;52.708;6.178;2023-12-28T01:13:50;17.60;;;7.65;;
67237;SDS011;54149;52.708;6.178;2023-12-28T01:16:16;24.55;;;7.43;;
67237;SDS011;54149;52.708;6.178;2023-12-28T01:18:42;16.48;;;7.90;;
67237;SDS011;54149;52.708;6.178;2023-12-28T01:21:08;22.27;;;8.07;;
67237;SDS011;54149;52.708;6.178;2023-12-28T01:23:35;19.77;;;7.75;;
67237;SDS011;54149;52.708;6.178;2023-12-28T01:26:01;24.75;;;8.00;;
67237;SDS011;54149;52.708;6.178;2023-12-28T01:28:27;20.13;;;7.68;;
67237;SDS011;54149;52.708;6.178;2023-12-28T01:30:53;24.52;;;8.15;;
67237;SDS011;54149;52.708;6.178;2023-12-28T01:33:19;19.42;;;7.95;;
67237;SDS011;54149;52.708;6.178;2023-12-28T01:35:46;28.23;;;7.75;;
67237;SDS011;54149;52.708;6.178;2023-12-28T01:38:12;16.92;;;7.05;;
67237;SDS011;54149;52.708;6.178;2023-12-28T01:40:38;28.27;;;7.82;;
67237;SDS011;54149;52.708;6.178;2023-12-28T01:43:04;19.15;;;7.28;;
67237;SDS011;54149;52.708;6.178;2023-12-28T01:45:30;22.38;;;7.07;;
67237;SDS011;54149;52.708;6.178;2023-12-28T01:47:57;27.20;;;7.57;;
67237;SDS011;54149;52.708;6.178;2023-12-28T01:50:23;26.17;;;7.63;;
67237;SDS011;54149;52.708;6.178;2023-12-28T01:52:51;25.45;;;7.88;;
67237;SDS011;54149;52.708;6.178;2023-12-28T01:55:18;23.55;;;7.45;;
67237;SDS011;54149;52.708;6.178;2023-12-28T01:57:46;22.83;;;8.30;;
67237;SDS011;54149;52.708;6.178;2023-12-28T02:00:12;23.65;;;7.00;;
67237;SDS011;54149;52.708;6.178;2023-12-28T02:02:38;24.13;;;6.53;;
67237;SDS011;54149;52.708;6.178;2023-12-28T02:05:06;18.13;;;6.95;;
67237;SDS011;54149;52.708;6.178;2023-12-28T02:07:33;21.30;;;6.18;;
67237;SDS011;54149;52.708;6.178;2023-12-28T02:10:01;25.20;;;6.63;;
67237;SDS011;54149;52.708;6.178;2023-12-28T02:12:27;25.73;;;7.15;;
67237;SDS011;54149;52.708;6.178;2023-12-28T02:14:53;17.17;;;6.47;;
67237;SDS011;54149;52.708;6.178;2023-12-28T02:17:22;26.17;;;7.10;;
67237;SDS011;54149;52.708;6.178;2023-12-28T02:19:55;20.42;;;6.47;;
67237;SDS011;54149;52.708;6.178;2023-12-28T02:22:24;20.57;;;6.67;;
67237;SDS011;54149;52.708;6.178;2023-12-28T02:25:07;25.27;;;6.00;;
67237;SDS011;54149;52.708;6.178;2023-12-28T02:27:38;12.45;;;5.60;;
67237;SDS011;54149;52.708;6.178;2023-12-28T02:30:05;21.50;;;5.95;;
67237;SDS011;54149;52.708;6.178;2023-12-28T02:35:01;29.38;;;6.85;;
67237;SDS011;54149;52.708;6.178;2023-12-28T02:37:30;18.48;;;4.97;;
67237;SDS011;54149;52.708;6.178;2023-12-28T02:39:57;24.00;;;5.50;;
67237;SDS011;54149;52.708;6.178;2023-12-28T02:42:23;20.95;;;6.75;;
67237;SDS011;54149;52.708;6.178;2023-12-28T02:44:50;16.95;;;5.18;;
67237;SDS011;54149;52.708;6.178;2023-12-28T02:47:16;16.33;;;5.60;;
67237;SDS011;54149;52.708;6.178;2023-12-28T02:49:42;16.98;;;5.28;;
67237;SDS011;54149;52.708;6.178;2023-12-28T02:52:08;17.88;;;5.30;;
67237;SDS011;54149;52.708;6.178;2023-12-28T02:54:34;24.95;;;5.90;;
67237;SDS011;54149;52.708;6.178;2023-12-28T02:57:00;18.67;;;5.00;;
67237;SDS011;54149;52.708;6.178;2023-12-28T02:59:26;22.80;;;5.72;;
67237;SDS011;54149;52.708;6.178;2023-12-28T03:01:52;19.88;;;4.97;;
67237;SDS011;54149;52.708;6.178;2023-12-28T03:04:18;37.10;;;6.90;;
67237;SDS011;54149;52.708;6.178;2023-12-28T03:06:46;22.85;;;5.03;;
67237;SDS011;54149;52.708;6.178;2023-12-28T03:09:12;21.85;;;4.60;;
67237;SDS011;54149;52.708;6.178;2023-12-28T03:11:38;23.50;;;5.13;;
67237;SDS011;54149;52.708;6.178;2023-12-28T03:14:04;22.80;;;5.03;;
67237;SDS011;54149;52.708;6.178;2023-12-28T03:16:30;18.05;;;4.18;;
67237;SDS011;54149;52.708;6.178;2023-12-28T03:18:56;22.77;;;4.97;;
67237;SDS011;54149;52.708;6.178;2023-12-28T03:21:22;20.85;;;4.85;;
67237;SDS011;54149;52.708;6.178;2023-12-28T03:23:49;13.60;;;4.22;;
67237;SDS011;54149;52.708;6.178;2023-12-28T03:26:15;25.13;;;5.47;;
67237;SDS011;54149;52.708;6.178;2023-12-28T03:28:41;16.23;;;4.20;;
67237;SDS011;54149;52.708;6.178;2023-12-28T03:31:07;24.58;;;5.25;;
67237;SDS011;54149;52.708;6.178;2023-12-28T03:33:33;27.55;;;4.93;;
67237;SDS011;54149;52.708;6.178;2023-12-28T03:35:59;20.92;;;5.45;;
67237;SDS011;54149;52.708;6.178;2023-12-28T03:38:27;20.52;;;4.93;;
67237;SDS011;54149;52.708;6.178;2023-12-28T03:40:53;17.52;;;5.28;;
67237;SDS011;54149;52.708;6.178;2023-12-28T03:43:20;24.42;;;5.00;;
67237;SDS011;54149;52.708;6.178;2023-12-28T03:45:46;16.77;;;4.80;;
67237;SDS011;54149;52.708;6.178;2023-12-28T03:48:12;12.55;;;4.43;;
67237;SDS011;54149;52.708;6.178;2023-12-28T03:50:38;23.67;;;5.28;;
67237;SDS011;54149;52.708;6.178;2023-12-28T03:53:04;19.73;;;4.63;;
67237;SDS011;54149;52.708;6.178;2023-12-28T03:55:30;22.58;;;4.35;;
67237;SDS011;54149;52.708;6.178;2023-12-28T03:57:56;23.05;;;6.15;;
67237;SDS011;54149;52.708;6.178;2023-12-28T04:00:23;15.35;;;4.43;;
67237;SDS011;54149;52.708;6.178;2023-12-28T04:02:49;24.60;;;4.75;;
67237;SDS011;54149;52.708;6.178;2023-12-28T04:05:15;24.85;;;5.82;;
67237;SDS011;54149;52.708;6.178;2023-12-28T04:07:41;23.55;;;4.97;;
67237;SDS011;54149;52.708;6.178;2023-12-28T04:10:08;28.10;;;5.22;;
67237;SDS011;54149;52.708;6.178;2023-12-28T04:12:34;23.73;;;5.35;;
67237;SDS011;54149;52.708;6.178;2023-12-28T04:15:02;24.10;;;5.90;;
67237;SDS011;54149;52.708;6.178;2023-12-28T04:17:28;19.95;;;4.97;;
67237;SDS011;54149;52.708;6.178;2023-12-28T04:19:54;18.17;;;4.38;;
67237;SDS011;54149;52.708;6.178;2023-12-28T04:22:20;27.88;;;5.43;;
67237;SDS011;54149;52.708;6.178;2023-12-28T04:24:46;20.80;;;4.38;;
67237;SDS011;54149;52.708;6.178;2023-12-28T04:27:12;18.60;;;3.70;;
67237;SDS011;54149;52.708;6.178;2023-12-28T04:29:39;20.15;;;6.00;;
67237;SDS011;54149;52.708;6.178;2023-12-28T04:32:05;18.58;;;4.68;;
67237;SDS011;54149;52.708;6.178;2023-12-28T04:34:31;22.42;;;4.63;;
67237;SDS011;54149;52.708;6.178;2023-12-28T04:36:57;35.22;;;5.00;;
67237;SDS011;54149;52.708;6.178;2023-12-28T04:39:23;24.92;;;4.88;;
67237;SDS011;54149;52.708;6.178;2023-12-28T04:41:49;24.15;;;4.50;;
67237;SDS011;54149;52.708;6.178;2023-12-28T04:44:15;27.38;;;4.97;;
67237;SDS011;54149;52.708;6.178;2023-12-28T04:46:41;22.20;;;4.50;;
67237;SDS011;54149;52.708;6.178;2023-12-28T04:49:10;15.35;;;4.45;;
67237;SDS011;54149;52.708;6.178;2023-12-28T04:51:41;24.55;;;4.78;;
67237;SDS011;54149;52.708;6.178;2023-12-28T04:54:07;17.58;;;4.63;;
67237;SDS011;54149;52.708;6.178;2023-12-28T04:56:33;21.98;;;4.70;;
67237;SDS011;54149;52.708;6.178;2023-12-28T04:58:59;22.08;;;4.57;;
67237;SDS011;54149;52.708;6.178;2023-12-28T05:01:26;25.90;;;4.88;;
67237;SDS011;54149;52.708;6.178;2023-12-28T05:03:56;21.60;;;4.25;;
67237;SDS011;54149;52.708;6.178;2023-12-28T05:06:22;24.42;;;4.55;;
67237;SDS011;54149;52.708;6.178;2023-12-28T05:08:48;29.73;;;4.93;;
67237;SDS011;54149;52.708;6.178;2023-12-28T05:11:14;27.30;;;4.90;;
67237;SDS011;54149;52.708;6.178;2023-12-28T05:13:40;25.40;;;4.30;;
67237;SDS011;54149;52.708;6.178;2023-12-28T05:16:07;28.45;;;5.00;;
67237;SDS011;54149;52.708;6.178;2023-12-28T05:18:33;22.15;;;4.28;;
67237;SDS011;54149;52.708;6.178;2023-12-28T05:20:59;27.10;;;4.95;;
67237;SDS011;54149;52.708;6.178;2023-12-28T05:23:25;25.63;;;4.32;;
67237;SDS011;54149;52.708;6.178;2023-12-28T05:25:51;22.00;;;4.28;;
67237;SDS011;54149;52.708;6.178;2023-12-28T05:28:17;23.55;;;4.82;;
67237;SDS011;54149;52.708;6.178;2023-12-28T05:30:43;18.58;;;4.07;;
67237;SDS011;54149;52.708;6.178;2023-12-28T05:33:09;22.08;;;4.05;;
67237;SDS011;54149;52.708;6.178;2023-12-28T05:35:36;31.15;;;5.35;;
67237;SDS011;54149;52.708;6.178;2023-12-28T05:38:02;18.77;;;4.07;;
67237;SDS011;54149;52.708;6.178;2023-12-28T05:40:28;29.73;;;5.32;;
67237;SDS011;54149;52.708;6.178;2023-12-28T05:42:54;25.85;;;4.72;;
67237;SDS011;54149;52.708;6.178;2023-12-28T05:45:20;16.67;;;3.85;;
67237;SDS011;54149;52.708;6.178;2023-12-28T05:47:46;17.35;;;4.97;;
67237;SDS011;54149;52.708;6.178;2023-12-28T05:50:13;20.48;;;4.13;;
67237;SDS011;54149;52.708;6.178;2023-12-28T05:52:39;24.10;;;4.85;;
67237;SDS011;54149;52.708;6.178;2023-12-28T05:55:05;23.75;;;3.95;;
67237;SDS011;54149;52.708;6.178;2023-12-28T05:57:31;23.42;;;3.80;;
67237;SDS011;54149;52.708;6.178;2023-12-28T05:59:57;30.95;;;4.80;;
67237;SDS011;54149;52.708;6.178;2023-12-28T06:02:23;25.58;;;4.15;;
67237;SDS011;54149;52.708;6.178;2023-12-28T06:04:49;24.45;;;3.78;;
67237;SDS011;54149;52.708;6.178;2023-12-28T06:07:15;34.60;;;5.05;;
67237;SDS011;54149;52.708;6.178;2023-12-28T06:09:42;23.35;;;4.47;;
67237;SDS011;54149;52.708;6.178;2023-12-28T06:12:08;21.73;;;4.25;;
67237;SDS011;54149;52.708;6.178;2023-12-28T06:14:34;23.50;;;4.70;;
67237;SDS011;54149;52.708;6.178;2023-12-28T06:17:00;31.77;;;3.92;;
67237;SDS011;54149;52.708;6.178;2023-12-28T06:19:26;27.17;;;3.90;;
67237;SDS011;54149;52.708;6.178;2023-12-28T06:21:52;29.17;;;4.80;;
67237;SDS011;54149;52.708;6.178;2023-12-28T06:24:19;18.00;;;4.28;;
67237;SDS011;54149;52.708;6.178;2023-12-28T06:26:45;26.90;;;3.45;;
67237;SDS011;54149;52.708;6.178;2023-12-28T06:29:11;23.10;;;3.38;;
67237;SDS011;54149;52.708;6.178;2023-12-28T06:31:37;35.28;;;3.85;;
67237;SDS011;54149;52.708;6.178;2023-12-28T06:34:04;24.98;;;4.00;;
67237;SDS011;54149;52.708;6.178;2023-12-28T06:36:30;33.00;;;4.20;;
67237;SDS011;54149;52.708;6.178;2023-12-28T06:38:56;19.42;;;3.50;;
67237;SDS011;54149;52.708;6.178;2023-12-28T06:41:22;31.02;;;4.45;;
67237;SDS011;54149;52.708;6.178;2023-12-28T06:43:48;24.92;;;4.57;;
67237;SDS011;54149;52.708;6.178;2023-12-28T06:46:15;30.30;;;4.78;;
67237;SDS011;54149;52.708;6.178;2023-12-28T06:48:41;30.65;;;4.00;;
67237;SDS011;54149;52.708;6.178;2023-12-28T06:51:08;30.45;;;4.32;;
67237;SDS011;54149;52.708;6.178;2023-12-28T06:53:35;35.03;;;4.18;;
67237;SDS011;54149;52.708;6.178;2023-12-28T06:56:01;31.88;;;3.85;;
67237;SDS011;54149;52.708;6.178;2023-12-28T06:58:28;24.00;;;4.30;;
67237;SDS011;54149;52.708;6.178;2023-12-28T07:00:54;25.67;;;3.97;;
67237;SDS011;54149;52.708;6.178;2023-12-28T07:03:22;28.90;;;4.53;;
67237;SDS011;54149;52.708;6.178;2023-12-28T07:05:50;34.85;;;4.40;;
67237;SDS011;54149;52.708;6.178;2023-12-28T07:08:16;38.22;;;4.57;;
67237;SDS011;54149;52.708;6.178;2023-12-28T07:10:42;33.35;;;4.63;;
67237;SDS011;54149;52.708;6.178;2023-12-28T07:13:08;30.05;;;4.72;;
67237;SDS011;54149;52.708;6.178;2023-12-28T07:15:34;40.20;;;5.53;;
67237;SDS011;54149;52.708;6.178;2023-12-28T07:18:01;29.13;;;3.70;;
67237;SDS011;54149;52.708;6.178;2023-12-28T07:20:27;35.78;;;4.50;;
67237;SDS011;54149;52.708;6.178;2023-12-28T07:22:53;29.80;;;4.40;;
67237;SDS011;54149;52.708;6.178;2023-12-28T07:25:19;38.35;;;4.65;;
67237;SDS011;54149;52.708;6.178;2023-12-28T07:27:45;31.88;;;4.20;;
67237;SDS011;54149;52.708;6.178;2023-12-28T07:30:11;35.40;;;4.35;;
67237;SDS011;54149;52.708;6.178;2023-12-28T07:32:38;33.47;;;4.57;;
67237;SDS011;54149;52.708;6.178;2023-12-28T07:35:04;43.88;;;5.40;;
67237;SDS011;54149;52.708;6.178;2023-12-28T07:37:30;31.00;;;4.55;;
67237;SDS011;54149;52.708;6.178;2023-12-28T07:39:56;23.38;;;4.20;;
67237;SDS011;54149;52.708;6.178;2023-12-28T07:42:22;38.25;;;4.60;;
67237;SDS011;54149;52.708;6.178;2023-12-28T07:44:48;48.13;;;5.82;;
67237;SDS011;54149;52.708;6.178;2023-12-28T07:47:15;35.22;;;4.63;;
67237;SDS011;54149;52.708;6.178;2023-12-28T07:49:41;31.60;;;4.35;;
67237;SDS011;54149;52.708;6.178;2023-12-28T07:52:07;32.13;;;4.47;;
67237;SDS011;54149;52.708;6.178;2023-12-28T07:54:33;32.70;;;4.22;;
67237;SDS011;54149;52.708;6.178;2023-12-28T07:57:00;30.35;;;4.35;;
67237;SDS011;54149;52.708;6.178;2023-12-28T07:59:26;40.30;;;3.78;;
67237;SDS011;54149;52.708;6.178;2023-12-28T08:01:52;43.22;;;4.85;;
67237;SDS011;54149;52.708;6.178;2023-12-28T08:04:18;44.88;;;5.53;;
67237;SDS011;54149;52.708;6.178;2023-12-28T08:06:44;36.72;;;4.57;;
67237;SDS011;54149;52.708;6.178;2023-12-28T08:09:11;28.52;;;4.82;;
67237;SDS011;54149;52.708;6.178;2023-12-28T08:11:37;32.90;;;4.80;;
67237;SDS011;54149;52.708;6.178;2023-12-28T08:14:03;39.85;;;4.93;;
67237;SDS011;54149;52.708;6.178;2023-12-28T08:16:29;47.92;;;5.88;;
67237;SDS011;54149;52.708;6.178;2023-12-28T08:18:55;38.72;;;5.03;;
67237;SDS011;54149;52.708;6.178;2023-12-28T08:21:21;33.25;;;4.50;;
67237;SDS011;54149;52.708;6.178;2023-12-28T08:23:47;38.20;;;4.63;;
67237;SDS011;54149;52.708;6.178;2023-12-28T08:26:13;48.78;;;5.05;;
67237;SDS011;54149;52.708;6.178;2023-12-28T08:28:39;46.42;;;6.93;;
67237;SDS011;54149;52.708;6.178;2023-12-28T08:31:06;34.25;;;4.78;;
67237;SDS011;54149;52.708;6.178;2023-12-28T08:33:33;43.72;;;4.70;;
67237;SDS011;54149;52.708;6.178;2023-12-28T08:36:00;30.92;;;4.97;;
67237;SDS011;54149;52.708;6.178;2023-12-28T08:38:29;45.58;;;5.45;;
67237;SDS011;54149;52.708;6.178;2023-12-28T08:40:55;38.33;;;4.80;;
67237;SDS011;54149;52.708;6.178;2023-12-28T08:43:21;44.15;;;4.85;;
67237;SDS011;54149;52.708;6.178;2023-12-28T08:45:47;34.95;;;4.47;;
67237;SDS011;54149;52.708;6.178;2023-12-28T08:48:13;33.10;;;4.63;;
67237;SDS011;54149;52.708;6.178;2023-12-28T08:50:39;46.20;;;5.07;;
67237;SDS011;54149;52.708;6.178;2023-12-28T08:53:05;39.53;;;4.82;;
67237;SDS011;54149;52.708;6.178;2023-12-28T08:55:32;36.55;;;4.18;;
67237;SDS011;54149;52.708;6.178;2023-12-28T08:57:58;38.25;;;5.50;;
67237;SDS011;54149;52.708;6.178;2023-12-28T09:00:24;32.58;;;4.47;;
67237;SDS011;54149;52.708;6.178;2023-12-28T09:02:51;40.47;;;5.15;;
67237;SDS011;54149;52.708;6.178;2023-12-28T09:05:17;40.13;;;5.43;;
67237;SDS011;54149;52.708;6.178;2023-12-28T09:07:43;37.13;;;4.75;;
67237;SDS011;54149;52.708;6.178;2023-12-28T09:10:10;52.08;;;6.20;;
67237;SDS011;54149;52.708;6.178;2023-12-28T09:12:36;39.08;;;5.28;;
67237;SDS011;54149;52.708;6.178;2023-12-28T09:15:04;28.17;;;4.18;;
67237;SDS011;54149;52.708;6.178;2023-12-28T09:17:30;40.60;;;4.90;;
67237;SDS011;54149;52.708;6.178;2023-12-28T09:19:56;38.28;;;4.97;;
67237;SDS011;54149;52.708;6.178;2023-12-28T09:22:23;46.53;;;5.40;;
67237;SDS011;54149;52.708;6.178;2023-12-28T09:24:49;48.03;;;5.85;;
67237;SDS011;54149;52.708;6.178;2023-12-28T09:27:15;34.10;;;5.95;;
67237;SDS011;54149;52.708;6.178;2023-12-28T09:29:42;40.00;;;6.38;;
67237;SDS011;54149;52.708;6.178;2023-12-28T09:32:08;43.70;;;4.80;;
67237;SDS011;54149;52.708;6.178;2023-12-28T09:34:34;38.00;;;4.97;;
67237;SDS011;54149;52.708;6.178;2023-12-28T09:37:00;33.63;;;5.35;;
67237;SDS011;54149;52.708;6.178;2023-12-28T09:39:26;32.47;;;4.82;;
67237;SDS011;54149;52.708;6.178;2023-12-28T09:41:55;34.85;;;5.70;;
67237;SDS011;54149;52.708;6.178;2023-12-28T09:44:21;40.78;;;4.95;;
67237;SDS011;54149;52.708;6.178;2023-12-28T09:46:47;34.40;;;4.75;;
67237;SDS011;54149;52.708;6.178;2023-12-28T09:49:13;41.97;;;5.45;;
67237;SDS011;54149;52.708;6.178;2023-12-28T09:51:39;43.22;;;6.35;;
67237;SDS011;54149;52.708;6.178;2023-12-28T09:54:05;40.97;;;5.13;;
67237;SDS011;54149;52.708;6.178;2023-12-28T09:56:32;38.30;;;4.85;;
67237;SDS011;54149;52.708;6.178;2023-12-28T09:58:59;39.42;;;5.50;;
67237;SDS011;54149;52.708;6.178;2023-12-28T10:01:25;43.35;;;5.43;;
67237;SDS011;54149;52.708;6.178;2023-12-28T10:03:51;36.08;;;5.00;;
67237;SDS011;54149;52.708;6.178;2023-12-28T10:06:17;30.23;;;5.13;;
67237;SDS011;54149;52.708;6.178;2023-12-28T10:08:47;43.85;;;5.00;;
67237;SDS011;54149;52.708;6.178;2023-12-28T10:11:17;34.55;;;5.63;;
67237;SDS011;54149;52.708;6.178;2023-12-28T10:13:43;36.95;;;4.82;;
67237;SDS011;54149;52.708;6.178;2023-12-28T10:16:09;35.00;;;4.35;;
67237;SDS011;54149;52.708;6.178;2023-12-28T10:18:36;34.03;;;5.45;;
67237;SDS011;54149;52.708;6.178;2023-12-28T10:21:02;43.72;;;5.25;;
67237;SDS011;54149;52.708;6.178;2023-12-28T10:23:28;28.75;;;4.55;;
67237;SDS011;54149;52.708;6.178;2023-12-28T10:25:55;36.88;;;4.63;;
67237;SDS011;54149;52.708;6.178;2023-12-28T10:28:22;40.55;;;4.32;;
67237;SDS011;54149;52.708;6.178;2023-12-28T10:30:48;33.60;;;4.75;;
67237;SDS011;54149;52.708;6.178;2023-12-28T10:33:14;32.40;;;5.30;;
67237;SDS011;54149;52.708;6.178;2023-12-28T10:35:40;38.92;;;6.28;;
67237;SDS011;54149;52.708;6.178;2023-12-28T10:38:07;37.58;;;5.10;;
67237;SDS011;54149;52.708;6.178;2023-12-28T10:40:33;31.77;;;4.90;;
67237;SDS011;54149;52.708;6.178;2023-12-28T10:43:02;35.90;;;5.47;;
67237;SDS011;54149;52.708;6.178;2023-12-28T10:45:31;31.92;;;5.25;;
67237;SDS011;54149;52.708;6.178;2023-12-28T10:50:34;33.83;;;4.28;;
67237;SDS011;54149;52.708;6.178;2023-12-28T10:53:11;34.63;;;4.93;;
67237;SDS011;54149;52.708;6.178;2023-12-28T10:55:40;30.15;;;4.32;;
67237;SDS011;54149;52.708;6.178;2023-12-28T10:58:10;38.17;;;6.75;;
67237;SDS011;54149;52.708;6.178;2023-12-28T11:00:41;41.17;;;4.55;;
67237;SDS011;54149;52.708;6.178;2023-12-28T11:03:10;41.58;;;5.53;;
67237;SDS011;54149;52.708;6.178;2023-12-28T11:05:37;36.92;;;4.22;;
67237;SDS011;54149;52.708;6.178;2023-12-28T11:08:06;37.60;;;4.30;;
67237;SDS011;54149;52.708;6.178;2023-12-28T11:10:32;49.97;;;5.78;;
67237;SDS011;54149;52.708;6.178;2023-12-28T11:12:59;46.20;;;5.15;;
67237;SDS011;54149;52.708;6.178;2023-12-28T11:15:26;41.78;;;4.00;;
67237;SDS011;54149;52.708;6.178;2023-12-28T11:17:53;30.52;;;4.72;;
67237;SDS011;54149;52.708;6.178;2023-12-28T11:20:20;28.90;;;5.40;;
67237;SDS011;54149;52.708;6.178;2023-12-28T11:22:46;35.85;;;4.53;;
67237;SDS011;54149;52.708;6.178;2023-12-28T11:25:17;40.28;;;4.95;;
67237;SDS011;54149;52.708;6.178;2023-12-28T11:27:43;33.38;;;4.60;;
67237;SDS011;54149;52.708;6.178;2023-12-28T11:30:11;35.58;;;5.13;;
67237;SDS011;54149;52.708;6.178;2023-12-28T11:32:38;27.85;;;4.45;;
67237;SDS011;54149;52.708;6.178;2023-12-28T11:35:07;36.05;;;4.60;;
67237;SDS011;54149;52.708;6.178;2023-12-28T11:37:37;32.80;;;4.70;;
67237;SDS011;54149;52.708;6.178;2023-12-28T11:40:13;37.78;;;4.80;;
67237;SDS011;54149;52.708;6.178;2023-12-28T11:42:47;43.70;;;4.78;;
67237;SDS011;54149;52.708;6.178;2023-12-28T11:45:14;34.90;;;5.38;;
67237;SDS011;54149;52.708;6.178;2023-12-28T11:47:41;35.15;;;5.53;;
67237;SDS011;54149;52.708;6.178;2023-12-28T11:50:08;42.10;;;5.15;;
67237;SDS011;54149;52.708;6.178;2023-12-28T11:52:34;39.75;;;5.30;;
67237;SDS011;54149;52.708;6.178;2023-12-28T11:55:00;49.33;;;7.28;;
67237;SDS011;54149;52.708;6.178;2023-12-28T11:57:26;39.05;;;5.95;;
67237;SDS011;54149;52.708;6.178;2023-12-28T11:59:53;37.95;;;4.28;;
67237;SDS011;54149;52.708;6.178;2023-12-28T12:02:20;33.22;;;5.55;;
67237;SDS011;54149;52.708;6.178;2023-12-28T12:04:46;38.28;;;5.38;;
67237;SDS011;54149;52.708;6.178;2023-12-28T12:07:12;41.97;;;5.22;;
67237;SDS011;54149;52.708;6.178;2023-12-28T12:09:38;30.67;;;5.25;;
67237;SDS011;54149;52.708;6.178;2023-12-28T12:12:06;41.28;;;5.82;;
67237;SDS011;54149;52.708;6.178;2023-12-28T12:14:32;41.60;;;5.53;;
67237;SDS011;54149;52.708;6.178;2023-12-28T12:17:00;40.50;;;5.65;;
67237;SDS011;54149;52.708;6.178;2023-12-28T12:19:26;49.30;;;5.07;;
67237;SDS011;54149;52.708;6.178;2023-12-28T12:21:53;30.33;;;5.03;;
67237;SDS011;54149;52.708;6.178;2023-12-28T12:24:20;33.25;;;4.53;;
67237;SDS011;54149;52.708;6.178;2023-12-28T12:26:46;31.70;;;4.75;;
67237;SDS011;54149;52.708;6.178;2023-12-28T12:29:13;42.75;;;5.10;;
67237;SDS011;54149;52.708;6.178;2023-12-28T12:31:42;43.38;;;5.25;;
67237;SDS011;54149;52.708;6.178;2023-12-28T12:34:10;48.72;;;5.22;;
67237;SDS011;54149;52.708;6.178;2023-12-28T12:36:36;42.50;;;5.57;;
67237;SDS011;54149;52.708;6.178;2023-12-28T12:39:03;48.53;;;6.88;;
67237;SDS011;54149;52.708;6.178;2023-12-28T12:41:35;39.50;;;5.28;;
67237;SDS011;54149;52.708;6.178;2023-12-28T12:44:02;40.65;;;4.72;;
67237;SDS011;54149;52.708;6.178;2023-12-28T12:46:29;34.20;;;5.55;;
67237;SDS011;54149;52.708;6.178;2023-12-28T12:48:59;37.00;;;4.97;;
67237;SDS011;54149;52.708;6.178;2023-12-28T12:51:29;48.47;;;6.05;;
67237;SDS011;54149;52.708;6.178;2023-12-28T12:53:59;35.85;;;4.65;;
67237;SDS011;54149;52.708;6.178;2023-12-28T12:56:29;48.65;;;5.90;;
67237;SDS011;54149;52.708;6.178;2023-12-28T12:58:55;47.97;;;5.82;;
67237;SDS011;54149;52.708;6.178;2023-12-28T13:01:22;35.65;;;5.07;;
67237;SDS011;54149;52.708;6.178;2023-12-28T13:03:49;41.10;;;5.78;;
67237;SDS011;54149;52.708;6.178;2023-12-28T13:06:16;40.30;;;4.95;;
67237;SDS011;54149;52.708;6.178;2023-12-28T13:08:42;36.95;;;6.32;;
67237;SDS011;54149;52.708;6.178;2023-12-28T13:11:08;43.63;;;5.80;;
67237;SDS011;54149;52.708;6.178;2023-12-28T13:13:35;41.08;;;5.38;;
67237;SDS011;54149;52.708;6.178;2023-12-28T13:16:02;52.13;;;6.85;;
67237;SDS011;54149;52.708;6.178;2023-12-28T13:18:28;42.50;;;5.32;;
67237;SDS011;54149;52.708;6.178;2023-12-28T13:20:54;34.78;;;6.07;;
67237;SDS011;54149;52.708;6.178;2023-12-28T13:23:20;32.88;;;5.30;;
67237;SDS011;54149;52.708;6.178;2023-12-28T13:25:46;36.47;;;6.07;;
67237;SDS011;54149;52.708;6.178;2023-12-28T13:28:12;38.80;;;5.85;;
67237;SDS011;54149;52.708;6.178;2023-12-28T13:30:39;35.20;;;5.30;;
67237;SDS011;54149;52.708;6.178;2023-12-28T13:33:05;34.35;;;4.97;;
67237;SDS011;54149;52.708;6.178;2023-12-28T13:35:32;37.17;;;5.32;;
67237;SDS011;54149;52.708;6.178;2023-12-28T13:38:01;42.20;;;5.95;;
67237;SDS011;54149;52.708;6.178;2023-12-28T13:40:27;33.53;;;5.32;;
67237;SDS011;54149;52.708;6.178;2023-12-28T13:42:54;34.83;;;5.30;;
67237;SDS011;54149;52.708;6.178;2023-12-28T13:45:20;47.25;;;5.13;;
67237;SDS011;54149;52.708;6.178;2023-12-28T13:47:46;45.60;;;5.28;;
67237;SDS011;54149;52.708;6.178;2023-12-28T13:50:12;38.50;;;5.53;;
67237;SDS011;54149;52.708;6.178;2023-12-28T13:52:39;45.97;;;6.07;;
67237;SDS011;54149;52.708;6.178;2023-12-28T13:55:05;42.90;;;4.82;;
67237;SDS011;54149;52.708;6.178;2023-12-28T13:57:31;29.58;;;5.57;;
67237;SDS011;54149;52.708;6.178;2023-12-28T13:59:57;35.17;;;5.07;;
67237;SDS011;54149;52.708;6.178;2023-12-28T14:02:28;31.88;;;6.65;;
67237;SDS011;54149;52.708;6.178;2023-12-28T14:04:54;29.23;;;5.03;;
67237;SDS011;54149;52.708;6.178;2023-12-28T14:07:21;32.88;;;5.80;;
67237;SDS011;54149;52.708;6.178;2023-12-28T14:09:47;36.22;;;5.50;;
67237;SDS011;54149;52.708;6.178;2023-12-28T14:12:14;36.25;;;6.00;;
67237;SDS011;54149;52.708;6.178;2023-12-28T14:14:40;40.30;;;6.38;;
67237;SDS011;54149;52.708;6.178;2023-12-28T14:17:07;35.50;;;4.30;;
67237;SDS011;54149;52.708;6.178;2023-12-28T14:19:36;47.33;;;4.75;;
67237;SDS011;54149;52.708;6.178;2023-12-28T14:22:02;34.08;;;5.05;;
67237;SDS011;54149;52.708;6.178;2023-12-28T14:24:28;41.63;;;4.70;;
67237;SDS011;54149;52.708;6.178;2023-12-28T14:26:55;32.15;;;4.70;;
67237;SDS011;54149;52.708;6.178;2023-12-28T14:29:21;27.30;;;4.28;;
67237;SDS011;54149;52.708;6.178;2023-12-28T14:31:48;38.13;;;5.30;;
67237;SDS011;54149;52.708;6.178;2023-12-28T14:34:15;31.30;;;4.10;;